Latest Coastal Weather Observations for Maatsuyker Island

IDT60701

Issued at 3:52 pm EDT Thursday 23 January 2020 (issued every 10 minutes, with the page automatically refreshed every 10 minutes)

About coastal observations | Map of coastal stations | Coastal observations for TAS | Marine services | Other Formats
Station Details ID: 094041 Name: MAATSUYKER ISLAND LIGHTHOUSE Lat: -43.66 Lon: 146.27 Height: 146.5 m
Data from the previous 72 hours. | See also: Recent months at Maatsuyker Island
Date/Time
EDT
Wind Sea
Height
m
Swell Vis
km
Cloud Weather Temp
°C
Press
hPa
Rain since
9am
mm
Dir  Spd
kts
Gust
kts
Height
m
Period
s
Dir
23/03:30pm NW 12 15 - - - - - - - 11.9 988.5 4.2
23/03:00pm NW 16 19 - - - - - - - 11.9 988.5 3.0
23/02:30pm NNW 12 19 - - - - - - - 12.1 989.1 1.2
23/02:00pm NNW 9 10 - - - - - - - 13.4 989.3 0.8
23/01:30pm NW 9 11 - - - - - - - 12.7 989.5 0.8
23/01:00pm NNW 10 13 - - - - - - - 12.7 989.8 0.8
23/12:30pm NW 12 17 - - - - - - - 11.8 989.9 0.8
23/12:00pm NNW 10 13 - - - - - - - 11.5 989.8 0.8
23/11:30am NW 13 16 - - - - - - - 11.2 989.9 0.2
23/11:00am WNW 14 16 - - - - - - - 11.3 990.2 0.0
23/10:30am NNW 7 9 - - - - - - - 11.8 990.6 0.0
23/10:00am NNW 7 9 - - - - - - - 11.9 990.9 0.0
23/09:30am NNW 9 11 - - - - - - - 11.5 991.3 0.0
23/09:00am N 8 11 <0.1 1.0 9 SW 23 Mostly cloudy Drizzle 11.3 991.2 12.2
23/08:30am NW 12 15 - - - - - - - 11.0 991.9 12.2
23/08:00am NW 15 20 - - - - - - - 11.0 991.9 12.2
23/07:30am NNW 11 13 - - - - - - - 11.1 992.1 12.2
23/07:00am NNW 13 18 - - - - - - - 12.0 991.8 12.2
23/06:30am NW 12 15 - - - - - - - 12.2 991.9 12.2
23/06:00am NNW 14 19 <0.1 1.0 10 SW 17 Cloudy Showers 12.1 991.8 11.8
23/05:30am NW 14 18 - - - - - - - 12.4 992.1 11.4
23/05:00am NW 14 18 - - - - - - - 12.4 992.2 11.0
23/04:30am NNW 10 13 - - - - - - - 12.4 992.4 11.0
23/04:00am N 7 8 - - - - - - - 12.2 992.7 11.0
23/03:30am N 6 8 - - - - - - - 12.2 993.0 10.8
23/03:00am N 7 8 - - - - - - - 12.1 993.1 10.8
23/02:30am N 7 9 - - - - - - - 12.3 993.7 10.8
23/02:00am NNW 11 16 - - - - - - - 12.5 994.2 10.2
23/01:30am NNW 12 16 - - - - - - - 12.7 994.5 10.0
23/01:00am NNW 13 17 - - - - - - - 13.0 994.6 9.8
23/12:30am NNW 15 20 - - - - - - - 13.2 995.4 9.6
23/12:00am N 13 19 - - - - - - - 13.4 995.2 9.2
 
Date/Time
EDT
Wind Sea
Height
m
Swell Vis
km
Cloud Weather Temp
°C
Press
hPa
Rain since
9am
mm
Dir  Spd
kts
Gust
kts
Height
m
Period
s
Dir
22/11:30pm NNW 18 25 - - - - - - - 13.6 995.9 9.0
22/11:04pm NNW 22 32 - - - - - - - 13.8 996.1 8.8
22/11:00pm NNW 21 26 - - - - - - - 14.1 996.3 8.8
22/10:30pm NNW 19 24 - - - - - - - 14.2 996.3 8.6
22/10:00pm N 17 23 - - - - - - - 14.0 996.1 8.6
22/09:30pm N 13 20 - - - - - - - 13.6 996.1 8.2
22/09:00pm N 13 19 - - - - - - - 13.4 996.0 8.0
22/08:30pm NNW 17 24 - - - - - - - 13.5 996.2 5.4
22/08:00pm NNW 16 19 - - - - - - - 13.3 995.8 4.4
22/07:30pm NW 25 28 - - - - - - - 13.4 995.4 2.6
22/07:00pm NW 26 31 - - - - - - - 13.3 995.2 1.4
22/06:30pm NW 23 26 - - - - - - - 13.4 995.7 1.0
22/06:26pm NW 24 26 - - - - - - - 13.4 995.8 1.0
22/06:00pm NW 34 40 - - - - - - - 14.1 995.4 0.4
22/05:30pm NW 34 39 - - - - - - - 15.4 995.7 0.0
22/05:00pm NW 31 34 - - - - - - - 16.6 994.7 0.0
22/04:56pm NW 31 34 - - - - - - - 16.9 994.7 0.0
22/04:30pm WNW 21 25 - - - - - - - 17.4 994.9 0.0
22/04:00pm NW 18 22 - - - - - - - 18.9 995.0 0.0
22/03:33pm WNW 16 29 - - - - - - - 20.0 995.7 0.0
22/03:30pm WNW 15 21 - - - - - - - 20.4 995.7 0.0
22/03:00pm N 14 21 - - - - - - - 23.5 994.5 0.0
22/02:30pm NE 10 15 - - - - - - - 21.7 995.0 0.0
22/02:00pm NE 7 12 - - - - - - - 23.2 995.8 0.0
22/01:30pm N 8 17 - - - - - - - 24.9 996.4 0.0
22/01:00pm N 9 15 - - - - - - - 23.3 997.0 0.0
22/12:30pm N 10 16 - - - - - - - 22.3 997.5 0.0
22/12:00pm N 10 15 - - - - - - - 20.2 997.7 0.0
22/11:30am NNE 12 17 - - - - - - - 19.4 998.0 0.0
22/11:00am NE 11 19 - - - - - - - 18.3 998.4 0.0
22/10:30am NE 9 12 - - - - - - - 17.4 998.5 0.0
22/10:00am NNE 8 13 - - - - - - - 17.4 999.0 0.0
22/09:30am N 7 11 - - - - - - - 17.7 999.4 0.0
22/09:00am N 7 11 <0.1 1.5 8 SE 25 Mostly cloudy Fine 15.7 999.8 0.0
22/08:30am N 5 7 - - - - - - - 14.8 1000.1 0.0
22/08:00am NNW 4 8 - - - - - - - 13.9 1000.2 0.0
22/07:30am N 1 4 - - - - - - - 12.7 1000.4 0.0
22/07:00am CALM 0 3 - - - - - - - 12.0 1000.6 0.0
22/06:30am NE 3 7 - - - - - - - 11.7 1000.7 0.0
22/06:00am NNE 2 4 <0.1 1.5 9 SE 23 Mostly cloudy Fine 11.0 1001.1 0.0
22/05:30am N 7 9 - - - - - - - 10.8 1001.4 0.0
22/05:00am N 7 8 - - - - - - - 10.9 1001.9 0.0
22/04:30am NNW 7 8 - - - - - - - 11.0 1002.0 0.0
22/04:00am N 6 8 - - - - - - - 11.0 1002.5 0.0
22/03:30am ENE 4 6 - - - - - - - 11.1 1002.5 0.0
22/03:00am N 3 5 - - - - - - - 10.9 1002.5 0.0
22/02:30am NE 6 7 - - - - - - - 11.2 1003.1 0.0
22/02:00am ENE 9 13 - - - - - - - 11.6 1003.9 0.0
22/01:30am E 10 15 - - - - - - - 11.5 1004.5 0.0
22/01:00am WNW 5 8 - - - - - - - 11.3 1004.6 0.0
22/12:30am WNW 5 9 - - - - - - - 11.6 1004.8 0.0
22/12:00am NW 4 7 - - - - - - - 11.6 1005.1 0.0
 
Date/Time
EDT
Wind Sea
Height
m
Swell Vis
km
Cloud Weather Temp
°C
Press
hPa
Rain since
9am
mm
Dir  Spd
kts
Gust
kts
Height
m
Period
s
Dir
21/11:30pm W 4 7 - - - - - - - 11.4 1005.6 0.0
21/11:00pm NW 4 7 - - - - - - - 11.0 1006.2 0.0
21/10:30pm WNW 3 5 - - - - - - - 10.9 1006.3 0.0
21/10:00pm NW 1 5 - - - - - - - 10.9 1006.5 0.0
21/09:30pm CALM 0 0 - - - - - - - 11.0 1006.6 0.0
21/09:00pm CALM 0 0 - - - - - - - 11.5 1006.2 0.0
21/08:30pm N 2 5 - - - - - - - 12.5 1006.4 0.0
21/08:00pm NE 3 5 - - - - - - - 13.3 1006.4 0.0
21/07:30pm ESE 5 8 - - - - - - - 13.2 1006.4 0.0
21/07:00pm SSE 11 13 - - - - - - - 13.7 1006.7 0.0
21/06:30pm SSE 13 15 - - - - - - - 14.5 1006.6 0.0
21/06:00pm S 8 11 - - - - - - - 14.7 1006.4 0.0
21/05:30pm S 9 11 - - - - - - - 14.5 1006.6 0.0
21/05:00pm S 9 12 - - - - - - - 15.3 1006.6 0.0
21/04:30pm SSE 8 11 - - - - - - - 14.9 1006.6 0.0
21/04:00pm S 9 11 - - - - - - - 15.4 1006.6 0.0
21/03:30pm S 11 14 - - - - - - - 15.5 1006.6 0.0
21/03:00pm S 9 11 - - - - - - - 15.8 1006.5 0.0
21/02:30pm S 8 11 - - - - - - - 15.4 1006.7 0.0
21/02:00pm S 7 9 - - - - - - - 15.4 1006.8 0.0
21/01:30pm S 9 11 - - - - - - - 14.9 1007.0 0.0
21/01:00pm S 6 8 - - - - - - - 14.7 1007.3 0.0
21/12:30pm SSE 7 9 - - - - - - - 13.6 1007.4 0.0
21/12:00pm SSE 11 14 - - - - - - - 14.7 1007.4 0.0
21/11:30am S 9 11 - - - - - - - 14.4 1007.8 0.0
21/11:00am S 8 11 - - - - - - - 14.3 1007.8 0.0
21/10:30am S 7 9 - - - - - - - 13.3 1008.0 0.0
21/10:00am S 11 13 - - - - - - - 13.2 1008.0 0.0
21/09:30am S 12 14 - - - - - - - 12.4 1007.9 0.0
21/09:00am S 9 12 <0.5 1.0 10 SW 25 Mostly cloudy Distant precip. 12.2 1007.6 3.2
21/08:30am SSE 11 13 - - - - - - - 11.5 1007.5 3.2
21/08:00am SSE 14 18 - - - - - - - 11.0 1007.2 3.2
21/07:30am S 18 20 - - - - - - - 10.8 1006.7 3.2
21/07:00am S 19 21 - - - - - - - 10.7 1006.6 3.2
21/06:30am SSE 17 20 - - - - - - - 10.4 1006.4 3.2
21/06:00am SSE 18 21 <0.5 1.5 10 SW 17 Mostly cloudy Distant precip. 10.4 1006.2 3.2
21/05:30am SSE 18 22 - - - - - - - 10.7 1006.4 3.2
21/05:00am SSE 20 23 - - - - - - - 10.6 1006.4 3.2
21/04:30am SSE 17 22 - - - - - - - 10.9 1006.4 3.2
21/04:00am E 9 14 - - - - - - - 10.8 1006.6 3.2
21/03:30am SE 13 21 - - - - - - - 11.0 1006.6 3.2
21/03:00am SE 14 18 - - - - - - - 10.9 1006.9 3.2
21/02:30am ESE 12 18 - - - - - - - 11.2 1007.0 3.2
21/02:00am E 11 18 - - - - - - - 11.3 1007.1 3.2
21/01:30am N 4 9 - - - - - - - 11.3 1007.2 3.0
21/01:00am NE 6 11 - - - - - - - 11.2 1007.4 1.6
21/12:30am NNE 5 8 - - - - - - - 11.4 1007.8 1.2
21/12:00am N 5 8 - - - - - - - 11.5 1007.8 0.6
 
Date/Time
EDT
Wind Sea
Height
m
Swell Vis
km
Cloud Weather Temp
°C
Press
hPa
Rain since
9am
mm
Dir  Spd
kts
Gust
kts
Height
m
Period
s
Dir
20/11:30pm N 4 8 - - - - - - - 11.7 1008.0 0.2
20/11:00pm N 2 5 - - - - - - - 11.9 1008.2 0.0
20/10:30pm N 3 4 - - - - - - - 12.0 1008.2 0.0
20/10:00pm N 3 6 - - - - - - - 12.1 1008.5 0.0
20/09:30pm NNW 3 5 - - - - - - - 12.0 1008.4 0.0
20/09:00pm NNW 2 5 - - - - - - - 12.0 1008.3 0.0
20/08:30pm NW 4 6 - - - - - - - 11.9 1008.5 0.0
20/08:00pm NNW 4 7 - - - - - - - 11.9 1008.4 0.0
20/07:30pm N 6 10 - - - - - - - 12.0 1008.2 0.0
20/07:00pm N 5 10 - - - - - - - 12.1 1007.9 0.0
20/06:30pm N 5 8 - - - - - - - 12.3 1007.9 0.0
20/06:00pm N 5 13 - - - - - - - 12.6 1007.9 0.0
20/05:30pm NNW 5 8 - - - - - - - 12.4 1008.2 0.0
20/05:00pm NNW 5 8 - - - - - - - 12.5 1008.5 0.0
20/04:30pm NNW 5 7 - - - - - - - 12.3 1008.4 0.0
20/04:00pm NNW 5 9 - - - - - - - 12.6 1008.6 0.0

Other formats

Comma delimited format used in spreadsheet applications
http://www.bom.gov.au/fwo/IDT60701/IDT60701.94962.axf

JavaScript Object Notation format (JSON) in row-major order
http://www.bom.gov.au/fwo/IDT60701/IDT60701.94962.json

Data quality

Most of these data are generated automatically and are frequently updated. Quality checks on data are not normally performed. It is possible for incorrect values to appear. Refer to information at About Latest Weather Observations and please check the disclaimer before using these data.